createdAt,value
2022-09-25T00:01:18.451Z,99184.97
2022-09-25T00:03:50.887Z,99182.75
2022-09-25T00:06:25.388Z,99179.94
2022-09-25T00:08:53.794Z,99174.22
2022-09-25T00:11:31.333Z,99178.97
2022-09-25T00:14:02.277Z,99174.66
2022-09-25T00:16:32.867Z,99175.91
2022-09-25T00:19:20.057Z,99177.16
2022-09-25T00:21:53.787Z,99182.50
2022-09-25T00:24:22.187Z,99173.66
2022-09-25T00:26:49.499Z,99174.91
2022-09-25T00:29:20.530Z,99172.47
2022-09-25T00:31:48.206Z,99166.56
2022-09-25T00:34:15.539Z,99161.47
2022-09-25T00:36:42.775Z,99164.31
2022-09-25T00:39:10.226Z,99171.50
2022-09-25T00:41:37.385Z,99172.31
2022-09-25T00:44:58.104Z,99172.75
2022-09-25T00:47:47.095Z,99164.16
2022-09-25T00:50:26.715Z,99168.31
2022-09-25T00:53:03.937Z,99159.25
2022-09-25T00:55:34.560Z,99162.97
2022-09-25T00:58:05.354Z,99156.81
2022-09-25T01:00:34.262Z,99152.75
2022-09-25T01:03:02.828Z,99154.81
2022-09-25T01:05:35.749Z,99155.25
2022-09-25T01:08:08.169Z,99156.06
2022-09-25T01:10:36.513Z,99139.69
2022-09-25T01:13:05.124Z,99143.00
2022-09-25T01:15:44.337Z,99150.19
2022-09-25T01:18:30.993Z,99154.91
2022-09-25T01:21:22.102Z,99143.88
2022-09-25T01:23:55.343Z,99132.00
2022-09-25T01:27:19.146Z,99126.91
2022-09-25T01:30:08.595Z,99132.25
2022-09-25T01:32:55.015Z,99136.97
2022-09-25T01:35:48.776Z,99134.09
2022-09-25T01:38:42.509Z,99133.88
2022-09-25T01:41:31.090Z,99142.09
2022-09-25T01:44:13.673Z,99138.59
2022-09-25T01:46:48.492Z,99140.25
2022-09-25T01:49:32.058Z,99131.22
2022-09-25T01:52:06.095Z,99136.97
2022-09-25T01:54:41.625Z,99135.34
2022-09-25T01:57:29.817Z,99139.66
2022-09-25T02:00:10.742Z,99136.16
2022-09-25T02:02:55.246Z,99136.97
2022-09-25T02:05:31.166Z,99135.72
2022-09-25T02:08:09.675Z,99144.31
2022-09-25T02:10:45.049Z,99133.06
2022-09-25T02:13:17.987Z,99131.22
2022-09-25T02:15:56.637Z,99137.34
2022-09-25T02:18:46.456Z,99136.56
2022-09-25T02:21:25.720Z,99140.25
2022-09-25T02:24:03.529Z,99132.25
2022-09-25T02:26:35.051Z,99140.25
2022-09-25T02:29:04.495Z,99123.22
2022-09-25T02:31:48.233Z,99128.75
2022-09-25T02:34:16.396Z,99130.19
2022-09-25T02:36:44.786Z,99125.91
2022-09-25T02:39:17.249Z,99121.59
2022-09-25T02:42:28.853Z,99124.25
2022-09-25T02:45:16.731Z,99122.59
2022-09-25T02:48:26.018Z,99127.56
2022-09-25T02:51:17.591Z,99129.66
2022-09-25T02:53:55.791Z,99121.44
2022-09-25T02:57:24.703Z,99131.25
2022-09-25T03:00:00.406Z,99133.09
2022-09-25T03:02:30.098Z,99114.03
2022-09-25T03:04:59.270Z,99116.91
2022-09-25T03:07:27.106Z,99119.59
2022-09-25T03:09:58.910Z,99112.41
2022-09-25T03:12:26.488Z,99109.13
2022-09-25T03:14:53.462Z,99107.28
2022-09-25T03:17:23.144Z,99095.22
2022-09-25T03:19:50.571Z,99103.78
2022-09-25T03:22:20.998Z,99107.50
2022-09-25T03:24:50.807Z,99103.78
2022-09-25T03:27:19.697Z,99104.84
2022-09-25T03:29:47.066Z,99101.78
2022-09-25T03:32:14.883Z,99109.59
2022-09-25T03:34:42.304Z,99104.69
2022-09-25T03:37:09.258Z,99111.03
2022-09-25T03:39:36.242Z,99113.69
2022-09-25T03:42:04.805Z,99099.34
2022-09-25T03:44:31.835Z,99105.94
2022-09-25T03:46:58.834Z,99103.25
2022-09-25T03:49:26.296Z,99103.47
2022-09-25T03:51:53.227Z,99100.78
2022-09-25T03:54:20.614Z,99099.63
2022-09-25T03:56:48.099Z,99105.53
2022-09-25T03:59:16.809Z,99092.66
2022-09-25T04:01:45.955Z,99092.03
2022-09-25T04:04:14.325Z,99088.78
2022-09-25T04:06:41.302Z,99101.09
2022-09-25T04:09:08.695Z,99093.09
2022-09-25T04:11:37.988Z,99098.84
2022-09-25T04:14:06.085Z,99107.25
2022-09-25T04:16:33.151Z,99108.47
2022-09-25T04:19:00.633Z,99099.44
2022-09-25T04:21:27.886Z,99104.19
2022-09-25T04:24:13.781Z,99104.78
2022-09-25T04:26:41.332Z,99097.00
2022-09-25T04:29:09.074Z,99094.53
2022-09-25T04:31:36.232Z,99099.06
2022-09-25T04:34:04.391Z,99094.53
2022-09-25T04:36:32.371Z,99100.69
2022-09-25T04:38:59.745Z,99097.22
2022-09-25T04:41:27.082Z,99103.34
2022-09-25T04:43:54.235Z,99098.25
2022-09-25T04:46:22.705Z,99100.91
2022-09-25T04:48:50.773Z,99093.13
2022-09-25T04:51:18.233Z,99086.78
2022-09-25T04:53:45.244Z,99096.19
2022-09-25T04:56:16.032Z,99098.03
2022-09-25T04:58:49.611Z,99103.16
2022-09-25T05:01:20.241Z,99087.38
2022-09-25T05:03:54.234Z,99100.50
2022-09-25T05:06:23.187Z,99096.59
2022-09-25T05:08:50.668Z,99095.75
2022-09-25T05:11:18.249Z,99104.34
2022-09-25T05:13:53.758Z,99101.44
2022-09-25T05:16:21.533Z,99095.94
2022-09-25T05:18:49.087Z,99097.53
2022-09-25T05:21:16.186Z,99092.81
2022-09-25T05:23:43.303Z,99096.09
2022-09-25T05:26:11.038Z,99092.97
2022-09-25T05:28:38.478Z,99095.44
2022-09-25T05:31:06.198Z,99099.28
2022-09-25T05:33:35.353Z,99093.97
2022-09-25T05:36:05.629Z,99099.09
2022-09-25T05:38:35.219Z,99107.88
2022-09-25T05:41:10.739Z,99105.84
2022-09-25T05:43:44.858Z,99096.78
2022-09-25T05:46:12.385Z,99111.09
2022-09-25T05:48:40.285Z,99114.34
2022-09-25T05:51:08.035Z,99106.94
2022-09-25T05:53:35.842Z,99107.34
2022-09-25T05:56:05.542Z,99102.38
2022-09-25T05:58:35.358Z,99107.72
2022-09-25T06:01:05.538Z,99104.03
2022-09-25T06:03:33.187Z,99106.03
2022-09-25T06:06:01.063Z,99111.75
2022-09-25T06:08:31.239Z,99109.66
2022-09-25T06:11:03.402Z,99107.16
2022-09-25T06:13:34.762Z,99104.66
2022-09-25T06:16:04.119Z,99098.44
2022-09-25T06:18:33.487Z,99100.22
2022-09-25T06:21:04.718Z,99101.56
2022-09-25T06:23:32.361Z,99111.34
2022-09-25T06:26:06.993Z,99102.44
2022-09-25T06:28:35.646Z,99109.56
2022-09-25T06:31:04.923Z,99117.72
2022-09-25T06:33:32.767Z,99120.53
2022-09-25T06:36:00.773Z,99113.13
2022-09-25T06:38:28.653Z,99117.56
2022-09-25T06:40:59.508Z,99116.91
2022-09-25T06:43:28.258Z,99117.03
2022-09-25T06:45:59.749Z,99110.44
2022-09-25T06:48:26.808Z,99107.91
2022-09-25T06:50:57.149Z,99102.94
2022-09-25T06:53:25.979Z,99105.75
2022-09-25T06:55:56.919Z,99103.22
2022-09-25T06:58:26.836Z,99098.59
2022-09-25T07:00:56.148Z,99093.78
2022-09-25T07:03:42.361Z,99096.72
2022-09-25T07:06:20.337Z,99098.63
2022-09-25T07:08:49.132Z,99098.88
2022-09-25T07:11:26.128Z,99097.50
2022-09-25T07:13:56.778Z,99096.13
2022-09-25T07:16:29.702Z,99091.03
2022-09-25T07:19:04.059Z,99097.06
2022-09-25T07:21:32.305Z,99094.41
2022-09-25T07:23:59.715Z,99100.78
2022-09-25T07:26:30.159Z,99094.06
2022-09-25T07:29:06.293Z,99086.84
2022-09-25T07:31:37.650Z,99103.13
2022-09-25T07:34:12.700Z,99084.03
2022-09-25T07:36:44.127Z,99087.97
2022-09-25T07:39:14.873Z,99085.72
2022-09-25T07:41:44.644Z,99094.81
2022-09-25T07:44:28.705Z,99091.53
2022-09-25T07:46:58.168Z,99087.19
2022-09-25T07:49:25.339Z,99096.47
2022-09-25T07:51:52.907Z,99096.66
2022-09-25T07:54:20.230Z,99099.28
2022-09-25T07:56:47.393Z,99094.38
2022-09-25T07:59:14.581Z,99085.69
2022-09-25T08:01:44.891Z,99085.06
2022-09-25T08:04:14.340Z,99090.09
2022-09-25T08:06:41.435Z,99082.28
2022-09-25T08:09:11.069Z,99091.09
2022-09-25T08:11:38.833Z,99081.00
2022-09-25T08:14:05.921Z,99079.78
2022-09-25T08:16:33.341Z,99074.00
2022-09-25T08:19:00.305Z,99078.69
2022-09-25T08:21:27.296Z,99075.38
2022-09-25T08:23:55.577Z,99074.44
2022-09-25T08:26:23.441Z,99067.88
2022-09-25T08:28:51.820Z,99067.53
2022-09-25T08:31:19.569Z,99066.00
2022-09-25T08:33:49.432Z,99055.38
2022-09-25T08:36:17.936Z,99056.28
2022-09-25T08:38:46.638Z,99063.91
2022-09-25T08:41:24.363Z,99072.34
2022-09-25T08:44:12.291Z,99070.75
2022-09-25T08:47:19.075Z,99069.44
2022-09-25T08:50:18.923Z,99068.66
2022-09-25T08:52:51.403Z,99057.41
2022-09-25T08:55:55.385Z,99052.03
2022-09-25T08:58:30.741Z,99038.69
2022-09-25T09:01:06.466Z,99036.59
2022-09-25T09:04:04.254Z,99034.50
2022-09-25T09:06:33.787Z,99029.19
2022-09-25T09:09:22.235Z,99021.72
2022-09-25T09:11:58.145Z,99015.88
2022-09-25T09:14:32.159Z,99010.25
2022-09-25T09:17:18.111Z,99013.81
2022-09-25T09:19:53.013Z,99018.38
2022-09-25T09:22:42.011Z,99011.66
2022-09-25T09:26:13.795Z,99022.44
2022-09-25T09:29:04.436Z,99018.13
2022-09-25T09:32:32.639Z,99014.69
2022-09-25T09:35:38.929Z,99008.53
2022-09-25T09:39:03.607Z,99022.25
2022-09-25T09:42:06.670Z,99016.34
2022-09-25T09:44:51.465Z,99014.50
2022-09-25T09:47:47.115Z,99018.78
2022-09-25T09:50:42.486Z,99007.28
2022-09-25T09:53:28.448Z,99010.78
2022-09-25T09:56:09.186Z,99008.13
2022-09-25T09:59:16.544Z,99007.59
2022-09-25T10:01:52.265Z,99005.44
2022-09-25T10:04:26.331Z,98996.84
2022-09-25T10:07:03.131Z,98996.34
2022-09-25T10:09:30.421Z,98987.72
2022-09-25T10:12:12.178Z,98986.69
2022-09-25T10:14:46.778Z,98992.91
2022-09-25T10:17:16.220Z,98984.03
2022-09-25T10:20:04.085Z,98994.28
2022-09-25T10:22:40.859Z,98974.88
2022-09-25T10:25:08.731Z,98977.56
2022-09-25T10:27:46.030Z,98981.06
2022-09-25T10:30:18.776Z,98978.63
2022-09-25T10:33:02.991Z,98980.25
2022-09-25T10:35:39.827Z,98979.19
2022-09-25T10:38:32.192Z,98980.81
2022-09-25T10:41:07.692Z,98985.66
2022-09-25T10:43:35.142Z,98980.81
2022-09-25T10:46:11.887Z,98984.56
2022-09-25T10:48:59.469Z,98978.66
2022-09-25T10:51:29.287Z,98981.38
2022-09-25T10:54:16.323Z,98983.50
2022-09-25T10:56:44.019Z,98977.59
2022-09-25T10:59:21.410Z,98974.91
2022-09-25T11:01:53.052Z,98977.03
2022-09-25T11:04:28.364Z,98981.38
2022-09-25T11:07:02.641Z,98980.00
2022-09-25T11:09:33.148Z,98972.47
2022-09-25T11:12:22.103Z,98965.75
2022-09-25T11:15:02.474Z,98968.44
2022-09-25T11:17:42.156Z,98978.97
2022-09-25T11:20:16.336Z,98972.75
2022-09-25T11:23:10.708Z,98975.44
2022-09-25T11:26:08.900Z,98968.41
2022-09-25T11:29:34.170Z,98964.66
2022-09-25T11:32:26.941Z,98970.03
2022-09-25T11:35:39.622Z,98978.13
2022-09-25T11:38:50.495Z,98976.50
2022-09-25T11:41:41.065Z,98970.06
2022-09-25T11:44:40.051Z,98965.75
2022-09-25T11:47:25.775Z,98959.03
2022-09-25T11:49:58.196Z,98955.53
2022-09-25T11:53:15.025Z,98945.84
2022-09-25T11:56:13.645Z,98944.25
2022-09-25T11:58:55.322Z,98952.88
2022-09-25T12:01:39.017Z,98949.38
2022-09-25T12:04:15.882Z,98938.84
2022-09-25T12:07:05.978Z,98930.22
2022-09-25T12:09:55.379Z,98924.28
2022-09-25T12:12:26.301Z,98918.63
2022-09-25T12:15:27.842Z,98917.28
2022-09-25T12:18:18.848Z,98903.25
2022-09-25T12:21:05.937Z,98897.31
2022-09-25T12:23:48.147Z,98885.94
2022-09-25T12:26:39.571Z,98882.44
2022-09-25T12:29:25.991Z,98882.41
2022-09-25T12:32:38.139Z,98877.00
2022-09-25T12:35:45.830Z,98882.41
2022-09-25T12:38:53.264Z,98875.09
2022-09-25T12:41:43.856Z,98877.75
2022-09-25T12:44:39.598Z,98890.72
2022-09-25T12:47:24.109Z,98878.03
2022-09-25T12:50:13.300Z,98885.84
2022-09-25T12:52:51.112Z,98892.56
2022-09-25T12:55:48.064Z,98883.13
2022-09-25T12:58:46.586Z,98883.13
2022-09-25T13:01:45.496Z,98873.94
2022-09-25T13:04:37.665Z,98876.91
2022-09-25T13:07:29.095Z,98873.44
2022-09-25T13:09:56.178Z,98872.31
2022-09-25T13:12:39.931Z,98870.78
2022-09-25T13:15:25.796Z,98874.00
2022-09-25T13:17:53.297Z,98875.59
2022-09-25T13:20:29.664Z,98868.09
2022-09-25T13:23:03.375Z,98874.28
2022-09-25T13:25:41.658Z,98872.13
2022-09-25T13:28:20.548Z,98874.53
2022-09-25T13:31:09.277Z,98879.94
2022-09-25T13:33:52.673Z,98874.81
2022-09-25T13:36:23.355Z,98877.25
2022-09-25T13:39:19.217Z,98874.03
2022-09-25T13:41:58.835Z,98880.78
2022-09-25T13:44:44.485Z,98870.28
2022-09-25T13:47:29.814Z,98868.13
2022-09-25T13:50:09.350Z,98874.06
2022-09-25T13:52:36.458Z,98867.31
2022-09-25T13:55:20.912Z,98864.91
2022-09-25T13:57:59.997Z,98862.22
2022-09-25T14:00:36.605Z,98867.34
2022-09-25T14:03:05.170Z,98862.47
2022-09-25T14:05:37.679Z,98851.97
2022-09-25T14:08:16.379Z,98854.41
2022-09-25T14:10:48.318Z,98859.81
2022-09-25T14:13:19.245Z,98858.75
2022-09-25T14:15:47.111Z,98853.88
2022-09-25T14:18:36.377Z,98853.63
2022-09-25T14:21:09.727Z,98852.53
2022-09-25T14:24:11.797Z,98856.88
2022-09-25T14:26:45.634Z,98845.81
2022-09-25T14:29:38.877Z,98848.78
2022-09-25T14:32:54.998Z,98842.31
2022-09-25T14:35:53.420Z,98848.25
2022-09-25T14:38:50.196Z,98838.00
2022-09-25T14:41:49.743Z,98838.56
2022-09-25T14:44:49.168Z,98844.50
2022-09-25T14:47:20.027Z,98827.25
2022-09-25T14:49:53.325Z,98823.50
2022-09-25T14:52:28.395Z,98831.03
2022-09-25T14:54:57.625Z,98836.44
2022-09-25T14:57:31.175Z,98848.28
2022-09-25T15:00:05.907Z,98838.59
2022-09-25T15:02:41.026Z,98838.84
2022-09-25T15:05:34.174Z,98827.81
2022-09-25T15:08:18.910Z,98832.94
2022-09-25T15:10:46.627Z,98818.13
2022-09-25T15:13:20.739Z,98813.25
2022-09-25T15:16:16.427Z,98817.31
2022-09-25T15:18:54.170Z,98819.75
2022-09-25T15:21:34.395Z,98825.66
2022-09-25T15:24:07.016Z,98828.66
2022-09-25T15:26:45.756Z,98812.19
2022-09-25T15:29:22.099Z,98806.53
2022-09-25T15:31:51.546Z,98817.06
2022-09-25T15:34:33.480Z,98825.13
2022-09-25T15:37:16.647Z,98830.00
2022-09-25T15:39:45.065Z,98822.97
2022-09-25T15:42:16.600Z,98815.19
2022-09-25T15:44:44.120Z,98816.53
2022-09-25T15:47:35.835Z,98824.06
2022-09-25T15:50:16.566Z,98822.44
2022-09-25T15:52:50.607Z,98816.53
2022-09-25T15:55:19.827Z,98816.00
2022-09-25T15:57:49.542Z,98812.72
2022-09-25T16:00:40.486Z,98804.13
2022-09-25T16:03:40.426Z,98805.47
2022-09-25T16:06:15.986Z,98808.44
2022-09-25T16:08:44.027Z,98799.00
2022-09-25T16:11:25.185Z,98794.13
2022-09-25T16:14:20.051Z,98790.06
2022-09-25T16:16:50.511Z,98792.22
2022-09-25T16:19:27.713Z,98792.75
2022-09-25T16:21:55.701Z,98796.56
2022-09-25T16:24:29.075Z,98800.31
2022-09-25T16:27:02.737Z,98790.06
2022-09-25T16:29:34.887Z,98794.91
2022-09-25T16:32:07.770Z,98790.88
2022-09-25T16:34:41.510Z,98781.44
2022-09-25T16:37:23.630Z,98785.47
2022-09-25T16:40:38.423Z,98790.59
2022-09-25T16:49:09.169Z,98812.13
2022-09-25T16:51:38.573Z,98803.50
2022-09-25T16:54:11.375Z,98804.03
2022-09-25T16:56:41.018Z,98801.84
2022-09-25T16:59:19.531Z,98809.41
2022-09-25T17:01:50.012Z,98803.72
2022-09-25T17:04:18.134Z,98810.44
2022-09-25T17:06:48.442Z,98804.53
2022-09-25T17:09:17.894Z,98802.63
2022-09-25T17:11:50.179Z,98810.97
2022-09-25T17:14:24.834Z,98811.50
2022-09-25T17:16:54.043Z,98811.19
2022-09-25T17:19:22.691Z,98812.53
2022-09-25T17:21:53.001Z,98814.69
2022-09-25T17:24:27.562Z,98816.28
2022-09-25T17:26:55.045Z,98808.75
2022-09-25T17:29:22.554Z,98810.06
2022-09-25T17:31:49.970Z,98809.78
2022-09-25T17:34:19.230Z,98811.69
2022-09-25T17:36:46.525Z,98807.38
2022-09-25T17:39:14.054Z,98809.50
2022-09-25T17:41:42.495Z,98810.84
2022-09-25T17:44:20.565Z,98803.03
2022-09-25T17:46:48.962Z,98798.97
2022-09-25T17:49:16.543Z,98799.53
2022-09-25T17:51:44.700Z,98797.91
2022-09-25T17:54:13.346Z,98796.81
2022-09-25T17:56:42.668Z,98797.88
2022-09-25T17:59:10.344Z,98797.31
2022-09-25T18:01:39.705Z,98799.47
2022-09-25T18:04:24.885Z,98792.97
2022-09-25T18:06:52.970Z,98789.25
2022-09-25T18:09:20.360Z,98792.44
2022-09-25T18:11:47.990Z,98795.13
2022-09-25T18:14:16.831Z,98798.88
2022-09-25T18:16:45.333Z,98801.81
2022-09-25T18:19:36.979Z,98794.81
2022-09-25T18:22:17.614Z,98788.09
2022-09-25T18:24:52.766Z,98792.13
2022-09-25T18:27:20.978Z,98790.75
2022-09-25T18:29:48.146Z,98795.59
2022-09-25T18:32:15.892Z,98796.09
2022-09-25T18:34:43.439Z,98793.91
2022-09-25T18:37:11.540Z,98799.81
2022-09-25T18:39:38.987Z,98797.13
2022-09-25T18:42:06.626Z,98802.50
2022-09-25T18:44:42.298Z,98805.44
2022-09-25T18:47:12.104Z,98812.69
2022-09-25T18:49:39.449Z,98815.38
2022-09-25T18:52:06.645Z,98807.59
2022-09-25T18:54:35.003Z,98814.28
2022-09-25T18:57:03.235Z,98811.59
2022-09-25T18:59:30.477Z,98814.81
2022-09-25T19:01:58.319Z,98809.44
2022-09-25T19:04:26.148Z,98800.81
2022-09-25T19:06:53.409Z,98809.94
2022-09-25T19:09:27.525Z,98809.94
2022-09-25T19:11:55.385Z,98802.97
2022-09-25T19:14:24.282Z,98800.53
2022-09-25T19:16:53.266Z,98799.72
2022-09-25T19:19:20.927Z,98802.66
2022-09-25T19:21:48.789Z,98801.84
2022-09-25T19:24:18.115Z,98804.00
2022-09-25T19:26:45.418Z,98804.81
2022-09-25T19:29:12.765Z,98794.56
2022-09-25T19:31:39.977Z,98792.16
2022-09-25T19:34:07.378Z,98792.16
2022-09-25T19:36:35.156Z,98790.53
2022-09-25T19:39:03.719Z,98787.28
2022-09-25T19:41:35.136Z,98788.34
2022-09-25T19:44:13.690Z,98798.53
2022-09-25T19:46:46.511Z,98789.38
2022-09-25T19:49:17.063Z,98791.53
2022-09-25T19:51:45.059Z,98796.31
2022-09-25T19:54:14.775Z,98799.28
2022-09-25T19:56:43.025Z,98798.47
2022-09-25T19:59:14.917Z,98801.09
2022-09-25T20:01:43.443Z,98798.41
2022-09-25T20:04:18.037Z,98790.63
2022-09-25T20:06:47.665Z,98801.66
2022-09-25T20:09:15.396Z,98791.41
2022-09-25T20:11:43.280Z,98793.53
2022-09-25T20:14:11.387Z,98789.22
2022-09-25T20:16:40.077Z,98794.06
2022-09-25T20:19:08.356Z,98780.09
2022-09-25T20:21:38.683Z,98778.44
2022-09-25T20:24:08.402Z,98778.94
2022-09-25T20:26:36.406Z,98779.50
2022-09-25T20:29:10.092Z,98767.13
2022-09-25T20:31:39.511Z,98776.22
2022-09-25T20:34:07.054Z,98769.25
2022-09-25T20:36:36.229Z,98768.72
2022-09-25T20:39:03.299Z,98775.94
2022-09-25T20:41:31.714Z,98773.50
2022-09-25T20:43:59.179Z,98757.13
2022-09-25T20:46:27.434Z,98764.63
2022-09-25T20:48:57.467Z,98751.44
2022-09-25T20:51:31.218Z,98760.56
2022-09-25T20:54:09.134Z,98764.06
2022-09-25T20:56:38.580Z,98773.16
2022-09-25T20:59:06.048Z,98777.16
2022-09-25T21:01:36.998Z,98768.56
2022-09-25T21:04:08.225Z,98763.72
2022-09-25T21:06:38.946Z,98760.47
2022-09-25T21:09:12.663Z,98766.34
2022-09-25T21:11:40.398Z,98756.13
2022-09-25T21:14:19.505Z,98758.25
2022-09-25T21:16:48.744Z,98754.19
2022-09-25T21:19:18.857Z,98750.13
2022-09-25T21:21:46.750Z,98752.53
2022-09-25T21:24:16.862Z,98750.06
2022-09-25T21:26:45.484Z,98750.03
2022-09-25T21:29:15.699Z,98755.88
2022-09-25T21:31:48.978Z,98749.41
2022-09-25T21:34:17.653Z,98749.91
2022-09-25T21:36:45.510Z,98748.31
2022-09-25T21:39:13.304Z,98754.19
2022-09-25T21:41:41.355Z,98748.75
2022-09-25T21:44:14.901Z,98748.69
2022-09-25T21:46:43.376Z,98747.59
2022-09-25T21:49:17.404Z,98743.28
2022-09-25T21:51:46.374Z,98748.59
2022-09-25T21:54:15.963Z,98741.63
2022-09-25T21:56:44.504Z,98738.63
2022-09-25T21:59:12.626Z,98747.16
2022-09-25T22:01:41.387Z,98739.88
2022-09-25T22:04:13.505Z,98739.59
2022-09-25T22:06:46.132Z,98739.25
2022-09-25T22:09:20.399Z,98736.03
2022-09-25T22:11:49.521Z,98736.53
2022-09-25T22:14:18.287Z,98739.13
2022-09-25T22:16:49.090Z,98737.22
2022-09-25T22:19:25.800Z,98730.47
2022-09-25T22:21:56.678Z,98733.66
2022-09-25T22:24:24.853Z,98725.06
2022-09-25T22:26:54.735Z,98727.19
2022-09-25T22:29:23.386Z,98725.25
2022-09-25T22:31:51.449Z,98722.31
2022-09-25T22:34:24.696Z,98725.41
2022-09-25T22:36:58.143Z,98718.63
2022-09-25T22:39:28.459Z,98727.97
2022-09-25T22:41:57.407Z,98726.28
2022-09-25T22:44:25.335Z,98713.94
2022-09-25T22:46:52.971Z,98715.03
2022-09-25T22:49:20.381Z,98716.56
2022-09-25T22:51:47.607Z,98716.25
2022-09-25T22:54:15.378Z,98722.72
2022-09-25T22:56:43.878Z,98721.28
2022-09-25T22:59:17.858Z,98720.16
2022-09-25T23:01:52.286Z,98715.28
2022-09-25T23:04:25.056Z,98713.06
2022-09-25T23:06:52.647Z,98708.78
2022-09-25T23:09:25.805Z,98705.56
2022-09-25T23:11:55.489Z,98701.50
2022-09-25T23:14:30.358Z,98694.78
2022-09-25T23:16:58.684Z,98692.59
2022-09-25T23:19:26.882Z,98685.03
2022-09-25T23:21:55.171Z,98679.63
2022-09-25T23:24:23.069Z,98684.66
2022-09-25T23:26:51.642Z,98692.34
2022-09-25T23:29:21.398Z,98681.31
2022-09-25T23:31:49.881Z,98687.41
2022-09-25T23:34:17.959Z,98687.09
2022-09-25T23:36:45.016Z,98679.31
2022-09-25T23:39:18.682Z,98675.50
2022-09-25T23:41:47.573Z,98675.44
2022-09-25T23:44:14.800Z,98671.63
2022-09-25T23:46:43.430Z,98676.38
2022-09-25T23:49:12.576Z,98676.09
2022-09-25T23:51:40.584Z,98675.75
2022-09-25T23:54:07.827Z,98679.50
2022-09-25T23:56:36.302Z,98674.16
2022-09-25T23:59:04.510Z,98677.84
